Time;durP1;ratioP1;P1;durP2;ratioP2;P2;SDS_P1;SDS_P2;PMS_P1;PMS_P2;Temp;Humidity;BMP_temperature;BMP_pressure;BME280_temperature;BME280_humidity;BME280_pressure;Samples;Min_cycle;Max_cycle;Signal;HPM_P1;HPM_P2
2023/02/09 00:01:20;;;;;;;40.13;13.07;;;29.30;74.10;;;;;;5090753;28;20313;-53
2023/02/09 00:03:48;;;;;;;45.88;14.30;;;29.30;74.30;;;;;;5090792;28;20028;-52
2023/02/09 00:06:17;;;;;;;39.83;14.10;;;29.30;74.50;;;;;;5090284;28;20339;-54
2023/02/09 00:08:44;;;;;;;37.38;13.00;;;29.30;74.60;;;;;;5090421;28;20036;-51
2023/02/09 00:13:21;;;;;;;30.75;12.35;;;29.30;74.70;;;;;;5090266;28;20025;-53
2023/02/09 00:14:13;;;;;;;70.35;13.60;;;29.30;74.80;;;;;;5090044;28;20100;-59
2023/02/09 00:16:41;;;;;;;43.15;12.73;;;29.20;75.10;;;;;;5070086;28;20020;-54
2023/02/09 00:19:07;;;;;;;43.75;12.95;;;29.20;75.00;;;;;;5070313;28;20033;-51
2023/02/09 00:21:34;;;;;;;35.45;11.90;;;29.20;75.10;;;;;;5071922;28;20324;-52
2023/02/09 00:24:00;;;;;;;29.15;11.48;;;29.20;75.20;;;;;;5081445;28;20037;-52
2023/02/09 00:26:27;;;;;;;28.42;11.32;;;29.30;75.20;;;;;;5089085;28;20027;-51
2023/02/09 00:28:54;;;;;;;32.97;11.77;;;29.20;75.20;;;;;;5090198;28;20276;-50
2023/02/09 00:31:20;;;;;;;24.65;11.07;;;29.20;75.20;;;;;;5086109;28;20039;-50
2023/02/09 00:33:47;;;;;;;27.75;10.80;;;29.20;75.00;;;;;;5090347;28;20032;-49
2023/02/09 00:36:15;;;;;;;32.25;10.88;;;29.20;75.00;;;;;;5090075;28;20035;-50
2023/02/09 00:38:42;;;;;;;19.67;10.20;;;29.20;75.10;;;;;;5090148;28;20032;-54
2023/02/09 00:41:10;;;;;;;22.95;10.02;;;29.20;74.90;;;;;;5089709;28;20029;-44
2023/02/09 00:43:36;;;;;;;19.52;9.82;;;29.20;74.90;;;;;;5090019;28;20212;-50
2023/02/09 00:46:04;;;;;;;35.00;11.18;;;29.20;74.90;;;;;;5089811;28;20051;-54
2023/02/09 00:48:30;;;;;;;30.30;10.77;;;29.20;74.80;;;;;;5089889;28;20081;-51
2023/02/09 00:50:57;;;;;;;19.48;9.75;;;29.20;74.70;;;;;;5089837;28;20248;-50
2023/02/09 00:53:24;;;;;;;23.05;10.50;;;29.20;74.60;;;;;;5087663;28;20040;-51
2023/02/09 00:55:51;;;;;;;22.15;10.05;;;29.10;74.50;;;;;;5080383;28;20310;-50
2023/02/09 00:58:19;;;;;;;35.70;11.20;;;29.10;74.50;;;;;;5082388;28;20016;-52
2023/02/09 01:00:47;;;;;;;33.63;11.15;;;29.10;74.40;;;;;;5068195;28;20316;-50
2023/02/09 01:03:15;;;;;;;18.27;9.95;;;29.10;74.40;;;;;;5083317;28;20031;-53
2023/02/09 01:05:42;;;;;;;23.98;11.07;;;29.10;74.20;;;;;;5086614;28;20217;-49
2023/02/09 01:08:09;;;;;;;31.33;10.75;;;29.10;74.20;;;;;;5086366;28;20043;-54
2023/02/09 01:10:37;;;;;;;32.05;10.13;;;29.10;74.20;;;;;;5086347;28;20028;-51
2023/02/09 01:13:04;;;;;;;21.63;10.02;;;29.10;74.10;;;;;;5086413;28;20024;-50
2023/02/09 01:15:30;;;;;;;23.80;10.23;;;29.10;74.10;;;;;;5086643;28;20051;-48
2023/02/09 01:17:58;;;;;;;18.70;10.32;;;29.10;74.10;;;;;;5086414;28;20264;-52
2023/02/09 01:20:25;;;;;;;21.02;9.95;;;29.10;74.10;;;;;;5068019;28;20313;-52
2023/02/09 01:22:52;;;;;;;18.90;9.90;;;29.10;74.10;;;;;;5066465;28;20029;-51
2023/02/09 01:25:18;;;;;;;20.00;9.18;;;29.10;74.10;;;;;;5066349;28;20044;-52
2023/02/09 01:27:45;;;;;;;17.38;9.90;;;29.10;74.00;;;;;;5066202;28;20087;-51
2023/02/09 01:30:12;;;;;;;23.60;10.88;;;29.10;74.00;;;;;;5065764;28;20060;-59
2023/02/09 01:32:39;;;;;;;30.13;10.80;;;29.10;74.00;;;;;;5065734;28;20021;-56
2023/02/09 01:35:06;;;;;;;33.47;11.10;;;29.10;74.00;;;;;;5069127;28;20039;-53
2023/02/09 01:37:34;;;;;;;25.23;10.65;;;29.10;74.00;;;;;;5084947;28;20024;-55
2023/02/09 01:40:01;;;;;;;21.52;10.02;;;29.10;74.00;;;;;;5085796;28;20035;-52
2023/02/09 01:42:28;;;;;;;39.47;11.32;;;29.10;74.10;;;;;;5086020;28;20039;-49
2023/02/09 01:45:20;;;;;;;30.60;10.18;;;29.10;74.00;;;;;;5085856;28;20397;-49
2023/02/09 01:47:55;;;;;;;48.53;12.07;;;29.00;73.90;;;;;;5085802;28;20032;-50
2023/02/09 01:50:23;;;;;;;33.10;11.52;;;29.00;73.90;;;;;;5086041;28;20035;-53
2023/02/09 01:52:50;;;;;;;50.80;11.60;;;29.00;73.80;;;;;;5083939;28;20067;-53
2023/02/09 01:55:21;;;;;;;38.72;11.35;;;29.00;73.90;;;;;;5074924;28;20025;-51
2023/02/09 01:57:54;;;;;;;37.13;12.50;;;29.00;73.90;;;;;;5072182;28;20088;-51
2023/02/09 02:00:21;;;;;;;42.15;11.50;;;29.00;74.00;;;;;;5085797;28;20036;-50
2023/02/09 02:03:03;;;;;;;44.35;11.57;;;29.00;74.10;;;;;;5085478;28;20331;-46
2023/02/09 02:05:33;;;;;;;34.38;11.80;;;29.00;74.20;;;;;;5085760;28;20040;-51
2023/02/09 02:08:02;;;;;;;30.33;11.02;;;29.00;74.30;;;;;;5085118;28;20237;-53
2023/02/09 02:10:29;;;;;;;29.27;14.73;;;29.00;74.40;;;;;;5084917;28;20036;-51
2023/02/09 02:12:56;;;;;;;45.60;25.75;;;29.00;74.50;;;;;;5085199;28;20261;-50
2023/02/09 02:16:01;;;;;;;55.20;30.73;;;28.90;74.50;;;;;;5085157;28;20217;-49
2023/02/09 02:18:51;;;;;;;53.65;28.55;;;29.00;74.60;;;;;;5063248;28;20052;-50
2023/02/09 02:21:48;;;;;;;47.00;22.77;;;28.90;74.50;;;;;;5084288;28;20217;-53
2023/02/09 02:24:52;;;;;;;40.72;19.77;;;29.00;74.50;;;;;;5084799;28;20213;-51
2023/02/09 02:27:36;;;;;;;34.92;15.88;;;28.90;74.50;;;;;;5084805;28;20037;-55
2023/02/09 02:30:12;;;;;;;27.50;14.93;;;28.90;74.50;;;;;;5085389;28;20035;-51
2023/02/09 02:32:52;;;;;;;23.67;14.13;;;28.90;74.40;;;;;;5084527;28;20083;-52
2023/02/09 02:35:33;;;;;;;22.05;12.55;;;28.90;74.20;;;;;;5085366;28;20074;-51
2023/02/09 02:38:07;;;;;;;18.95;11.80;;;28.90;74.10;;;;;;5084418;28;20085;-56
2023/02/09 02:40:49;;;;;;;20.27;11.05;;;28.90;74.00;;;;;;5082463;28;20359;-51
2023/02/09 02:43:18;;;;;;;23.20;10.45;;;28.90;73.80;;;;;;5080367;28;20275;-52
2023/02/09 02:46:08;;;;;;;19.75;10.25;;;28.90;73.70;;;;;;5084827;28;20037;-51
2023/02/09 02:48:42;;;;;;;15.18;9.55;;;28.90;73.60;;;;;;5083397;28;20040;-54
2023/02/09 02:51:37;;;;;;;17.25;9.65;;;28.90;73.60;;;;;;5084393;28;20020;-52
2023/02/09 02:54:17;;;;;;;15.35;9.45;;;28.90;73.60;;;;;;5082156;28;20284;-51
2023/02/09 02:56:52;;;;;;;15.85;10.60;;;28.90;73.50;;;;;;5084371;28;20027;-53
2023/02/09 02:59:26;;;;;;;18.20;12.13;;;28.90;73.40;;;;;;5084315;28;20037;-53
2023/02/09 03:01:56;;;;;;;13.68;10.90;;;28.90;73.30;;;;;;5084198;28;20095;-50
2023/02/09 03:04:28;;;;;;;15.52;10.35;;;28.90;73.10;;;;;;5084213;28;20315;-51
2023/02/09 03:06:54;;;;;;;15.90;9.95;;;28.80;73.00;;;;;;5084312;28;20208;-50
2023/02/09 03:09:21;;;;;;;13.55;9.80;;;28.90;73.00;;;;;;5084407;28;20362;-51
2023/02/09 03:11:51;;;;;;;12.18;9.38;;;28.90;72.90;;;;;;5084178;28;20359;-54
2023/02/09 03:14:29;;;;;;;13.88;8.93;;;28.80;72.70;;;;;;5083852;28;20319;-52
2023/02/09 03:16:59;;;;;;;13.45;9.25;;;28.90;72.70;;;;;;5084146;28;20056;-55
2023/02/09 03:19:51;;;;;;;10.35;8.40;;;28.80;72.60;;;;;;5084017;28;20029;-53
2023/02/09 03:22:29;;;;;;;12.13;8.23;;;28.90;72.40;;;;;;5083527;28;20028;-53
2023/02/09 03:25:07;;;;;;;12.48;8.18;;;28.80;72.50;;;;;;5084530;28;20048;-51
2023/02/09 03:27:57;;;;;;;12.35;8.50;;;28.80;72.40;;;;;;5084039;28;20303;-56
2023/02/09 03:30:24;;;;;;;13.18;8.13;;;28.80;72.50;;;;;;5069567;28;20047;-55
2023/02/09 03:32:55;;;;;;;10.48;7.15;;;28.80;72.40;;;;;;5083974;28;20016;-48
2023/02/09 03:35:26;;;;;;;11.98;8.10;;;28.90;72.40;;;;;;5084030;28;20033;-49
2023/02/09 03:37:53;;;;;;;13.27;7.53;;;28.80;72.20;;;;;;5083845;28;20025;-49
2023/02/09 03:40:19;;;;;;;11.60;7.97;;;28.80;72.10;;;;;;5084414;28;20082;-52
2023/02/09 03:42:46;;;;;;;13.07;7.57;;;28.80;72.10;;;;;;5083888;28;20008;-48
2023/02/09 03:45:12;;;;;;;9.55;7.13;;;28.80;72.00;;;;;;5083759;28;20380;-55
2023/02/09 03:47:39;;;;;;;12.10;7.60;;;28.80;72.00;;;;;;5083795;28;20139;-53
2023/02/09 03:50:06;;;;;;;10.63;7.57;;;28.80;72.10;;;;;;5083845;28;20305;-51
2023/02/09 03:52:33;;;;;;;9.57;7.18;;;28.80;72.00;;;;;;5082539;28;20038;-49
2023/02/09 03:55:00;;;;;;;11.23;7.00;;;28.80;72.00;;;;;;5084144;28;20366;-53
2023/02/09 03:57:27;;;;;;;9.75;7.35;;;28.80;72.00;;;;;;5083728;28;20017;-54
2023/02/09 03:59:53;;;;;;;8.50;7.05;;;28.80;72.10;;;;;;5083545;28;20033;-51
2023/02/09 04:02:20;;;;;;;7.88;7.07;;;28.80;72.10;;;;;;5083669;28;20025;-49
2023/02/09 04:04:46;;;;;;;9.65;6.78;;;28.80;72.20;;;;;;5083586;28;20028;-50
2023/02/09 04:07:13;;;;;;;9.80;6.85;;;28.80;72.20;;;;;;5083591;28;20055;-52
2023/02/09 04:09:40;;;;;;;9.32;7.18;;;28.80;72.30;;;;;;5083944;28;20319;-51
2023/02/09 04:12:06;;;;;;;8.98;6.68;;;28.80;72.20;;;;;;5083511;28;20029;-53
2023/02/09 04:14:33;;;;;;;11.02;6.97;;;28.80;72.30;;;;;;5083736;28;20024;-53
2023/02/09 04:16:59;;;;;;;8.43;7.07;;;28.80;72.20;;;;;;5083679;28;20024;-52
2023/02/09 04:19:26;;;;;;;10.23;6.75;;;28.70;72.10;;;;;;5083506;28;20028;-55
2023/02/09 04:21:53;;;;;;;10.52;7.50;;;28.80;72.10;;;;;;5083375;28;20016;-53
2023/02/09 04:24:20;;;;;;;7.15;6.45;;;28.70;72.00;;;;;;5083783;28;20033;-52
2023/02/09 04:26:47;;;;;;;11.75;7.18;;;28.70;72.00;;;;;;5083428;28;20126;-54
2023/02/09 04:29:13;;;;;;;11.52;7.03;;;28.70;72.00;;;;;;5083443;28;20074;-52
2023/02/09 04:31:40;;;;;;;7.82;6.75;;;28.70;72.00;;;;;;5083263;28;20261;-51
2023/02/09 04:34:06;;;;;;;9.10;6.97;;;28.70;72.10;;;;;;5083286;28;20020;-51
2023/02/09 04:36:33;;;;;;;7.85;6.57;;;28.70;72.10;;;;;;5087086;28;20134;-50
2023/02/09 04:39:01;;;;;;;10.27;7.00;;;28.70;72.00;;;;;;5087162;28;20020;-51
2023/02/09 04:41:27;;;;;;;10.10;6.38;;;28.70;72.00;;;;;;5087033;28;20024;-52
2023/02/09 04:43:54;;;;;;;10.13;7.00;;;28.70;72.00;;;;;;5087068;28;20036;-54
2023/02/09 04:46:20;;;;;;;11.63;6.88;;;28.70;72.00;;;;;;5086737;28;20068;-53
2023/02/09 04:48:47;;;;;;;14.85;7.15;;;28.70;72.10;;;;;;5083994;28;20039;-52
2023/02/09 04:51:14;;;;;;;10.07;7.30;;;28.70;72.10;;;;;;5066830;28;20017;-55
2023/02/09 04:53:40;;;;;;;12.68;7.30;;;28.70;72.10;;;;;;5066787;28;20088;-50
2023/02/09 04:56:07;;;;;;;9.00;6.63;;;28.70;72.10;;;;;;5066759;28;20033;-50
2023/02/09 05:01:21;;;;;;;11.60;6.90;;;28.60;72.10;;;;;;5066738;28;20071;-50
2023/02/09 05:03:48;;;;;;;9.25;6.88;;;28.60;72.10;;;;;;5066371;28;20033;-57
2023/02/09 05:06:15;;;;;;;10.02;6.80;;;28.60;72.00;;;;;;5066374;28;20031;-53
2023/02/09 05:08:43;;;;;;;11.23;6.68;;;28.60;71.90;;;;;;5066641;28;20032;-51
2023/02/09 05:11:10;;;;;;;8.68;6.65;;;28.60;71.90;;;;;;5066300;28;20075;-50
2023/02/09 05:13:36;;;;;;;8.07;6.55;;;28.60;71.90;;;;;;5066337;28;20056;-50
2023/02/09 05:16:08;;;;;;;12.85;6.72;;;28.60;71.80;;;;;;5066476;28;20187;-51
2023/02/09 05:18:35;;;;;;;9.50;6.75;;;28.60;71.80;;;;;;5066038;28;20040;-53
2023/02/09 05:21:02;;;;;;;8.73;6.40;;;28.60;71.80;;;;;;5066155;28;20025;-51
2023/02/09 05:23:29;;;;;;;8.32;6.30;;;28.60;71.70;;;;;;5066474;28;20310;-51
2023/02/09 05:25:56;;;;;;;7.35;6.55;;;28.60;71.60;;;;;;5066346;28;20061;-50
2023/02/09 05:28:23;;;;;;;7.85;6.18;;;28.60;71.60;;;;;;5066085;28;20028;-52
2023/02/09 05:30:52;;;;;;;8.77;6.25;;;28.60;71.60;;;;;;5066309;28;20431;-52
2023/02/09 05:33:23;;;;;;;7.53;6.55;;;28.60;71.50;;;;;;5065829;28;20029;-52
2023/02/09 05:35:51;;;;;;;9.23;6.28;;;28.60;71.30;;;;;;5066031;28;20033;-53
2023/02/09 05:38:18;;;;;;;8.88;6.47;;;28.60;71.30;;;;;;5066010;28;20017;-53
2023/02/09 05:40:45;;;;;;;6.43;5.82;;;28.60;71.30;;;;;;5065972;28;20321;-53
2023/02/09 05:43:11;;;;;;;7.82;6.15;;;28.60;71.40;;;;;;5065783;28;20417;-56
2023/02/09 05:45:39;;;;;;;9.60;6.30;;;28.60;71.30;;;;;;5065153;28;20108;-52
2023/02/09 05:48:07;;;;;;;7.82;5.65;;;28.50;71.10;;;;;;5065357;28;20255;-51
2023/02/09 05:50:35;;;;;;;7.88;6.28;;;28.50;71.10;;;;;;5065509;28;20266;-50
2023/02/09 05:53:02;;;;;;;11.07;5.65;;;28.60;71.10;;;;;;5065730;28;20013;-52
2023/02/09 05:55:28;;;;;;;7.07;5.95;;;28.50;71.00;;;;;;5065643;28;20037;-53
2023/02/09 05:57:56;;;;;;;7.00;5.60;;;28.50;71.00;;;;;;5065603;28;20028;-51
2023/02/09 06:00:23;;;;;;;10.65;6.10;;;28.50;71.10;;;;;;5066090;28;20100;-51
2023/02/09 06:02:50;;;;;;;9.57;6.00;;;28.50;71.20;;;;;;5065098;28;20020;-51
2023/02/09 06:05:19;;;;;;;7.55;6.15;;;28.50;71.30;;;;;;5065860;28;20088;-53
2023/02/09 06:07:46;;;;;;;8.95;5.50;;;28.50;71.30;;;;;;5065415;28;20140;-53
2023/02/09 06:10:12;;;;;;;8.48;6.03;;;28.50;71.30;;;;;;5065729;28;20028;-52
2023/02/09 06:12:39;;;;;;;8.68;5.82;;;28.50;71.30;;;;;;5065254;28;20080;-53
2023/02/09 06:15:06;;;;;;;8.52;6.25;;;28.50;71.30;;;;;;5065656;28;20013;-48
2023/02/09 06:17:32;;;;;;;6.63;6.00;;;28.50;71.40;;;;;;5064874;28;20221;-50
2023/02/09 06:19:59;;;;;;;9.57;5.90;;;28.50;71.40;;;;;;5065474;28;20213;-52
2023/02/09 06:22:28;;;;;;;10.30;5.95;;;28.50;71.50;;;;;;5065127;28;20032;-50
2023/02/09 06:24:54;;;;;;;7.45;6.20;;;28.50;71.50;;;;;;5065418;28;20032;-57
2023/02/09 06:27:21;;;;;;;9.85;6.50;;;28.50;71.60;;;;;;5064960;28;20021;-50
2023/02/09 06:29:47;;;;;;;8.20;6.13;;;28.50;71.60;;;;;;5065002;28;20024;-52
2023/02/09 06:32:14;;;;;;;9.63;6.30;;;28.50;71.60;;;;;;5064525;28;20041;-49
2023/02/09 06:34:40;;;;;;;6.82;5.85;;;28.50;71.60;;;;;;5065141;28;20025;-52
2023/02/09 06:37:07;;;;;;;8.75;5.72;;;28.40;71.50;;;;;;5064791;28;20032;-55
2023/02/09 06:39:34;;;;;;;7.95;6.13;;;28.40;71.60;;;;;;5065162;28;20080;-50
2023/02/09 06:42:00;;;;;;;18.00;6.80;;;28.40;71.50;;;;;;5064689;28;20039;-46
2023/02/09 06:44:27;;;;;;;15.48;7.00;;;28.40;71.50;;;;;;5064974;28;20040;-54
2023/02/09 06:46:53;;;;;;;14.07;5.90;;;28.40;71.50;;;;;;5064286;28;20029;-51
2023/02/09 06:49:22;;;;;;;11.95;6.38;;;28.40;71.40;;;;;;5064693;28;20041;-53
2023/02/09 06:51:49;;;;;;;7.95;5.88;;;28.40;71.40;;;;;;5064436;28;20033;-48
2023/02/09 06:54:16;;;;;;;6.28;5.50;;;28.40;71.30;;;;;;5064740;28;20017;-50
2023/02/09 06:56:42;;;;;;;9.45;6.45;;;28.40;71.40;;;;;;5063839;28;20336;-48
2023/02/09 06:59:09;;;;;;;9.25;6.50;;;28.40;71.40;;;;;;5064486;28;20024;-51
2023/02/09 07:01:36;;;;;;;8.52;6.07;;;28.40;71.40;;;;;;5063984;28;20044;-52
2023/02/09 07:04:02;;;;;;;7.65;6.07;;;28.40;71.50;;;;;;5076115;28;20024;-51
2023/02/09 07:06:29;;;;;;;7.07;5.90;;;28.40;71.50;;;;;;5084341;28;20056;-47
2023/02/09 07:08:55;;;;;;;9.23;5.70;;;28.40;71.40;;;;;;5084415;28;20301;-48
2023/02/09 07:11:22;;;;;;;7.03;6.20;;;28.40;71.40;;;;;;5084046;28;20317;-50
2023/02/09 07:13:49;;;;;;;10.15;6.05;;;28.40;71.50;;;;;;5084327;28;20320;-50
2023/02/09 07:16:15;;;;;;;8.40;6.20;;;28.40;71.50;;;;;;5083386;28;20021;-53
2023/02/09 07:18:42;;;;;;;10.35;6.47;;;28.40;71.60;;;;;;5084240;28;20016;-51
2023/02/09 07:21:14;;;;;;;7.80;6.00;;;28.40;71.70;;;;;;5084199;28;20047;-53
2023/02/09 07:23:41;;;;;;;9.32;6.53;;;28.40;71.70;;;;;;5084151;28;20371;-52
2023/02/09 07:26:12;;;;;;;7.20;5.90;;;28.40;71.70;;;;;;5083925;28;20060;-52
2023/02/09 07:28:39;;;;;;;6.85;5.60;;;28.40;71.80;;;;;;5084174;28;20327;-51
2023/02/09 07:31:08;;;;;;;6.57;5.88;;;28.40;71.80;;;;;;5083690;28;20043;-52
2023/02/09 07:33:35;;;;;;;9.52;6.35;;;28.40;71.80;;;;;;5083860;28;20035;-49
2023/02/09 07:36:07;;;;;;;7.82;6.03;;;28.40;71.80;;;;;;5083978;28;20024;-51
2023/02/09 07:38:34;;;;;;;8.48;6.05;;;28.40;71.80;;;;;;5084070;28;20028;-51
2023/02/09 07:41:03;;;;;;;7.47;5.63;;;28.40;71.80;;;;;;5083765;28;20033;-54
2023/02/09 07:43:30;;;;;;;8.40;5.72;;;28.40;71.90;;;;;;5084003;28;20044;-50
2023/02/09 07:46:05;;;;;;;7.25;6.15;;;28.40;71.80;;;;;;5083355;28;20059;-51
2023/02/09 07:48:33;;;;;;;8.10;6.88;;;28.30;71.80;;;;;;5084036;28;20185;-54
2023/02/09 07:51:01;;;;;;;11.88;6.82;;;28.30;71.80;;;;;;5084048;28;20336;-51
2023/02/09 07:53:27;;;;;;;9.05;7.55;;;28.30;71.80;;;;;;5083695;28;20016;-50
2023/02/09 07:55:54;;;;;;;8.50;6.72;;;28.30;71.70;;;;;;5084029;28;20048;-51
2023/02/09 07:58:21;;;;;;;11.10;8.45;;;28.30;71.70;;;;;;5083909;28;20086;-55
2023/02/09 08:00:50;;;;;;;9.57;7.47;;;28.30;71.80;;;;;;5083188;28;20020;-53
2023/02/09 08:03:19;;;;;;;9.38;7.32;;;28.30;71.70;;;;;;5083681;28;20359;-51
2023/02/09 08:05:49;;;;;;;11.60;6.97;;;28.40;71.70;;;;;;5083700;28;20033;-51
2023/02/09 08:08:15;;;;;;;8.57;7.13;;;28.30;71.60;;;;;;5083827;28;20039;-51
2023/02/09 08:10:42;;;;;;;7.95;6.60;;;28.40;71.90;;;;;;5087638;28;20025;-55
2023/02/09 08:13:10;;;;;;;10.02;6.82;;;28.30;72.00;;;;;;5087996;28;20369;-52
2023/02/09 08:15:49;;;;;;;10.68;7.07;;;28.30;72.10;;;;;;5087133;28;20039;-53
2023/02/09 08:18:20;;;;;;;19.02;7.95;;;28.30;73.60;;;;;;5087573;28;20054;-54
2023/02/09 08:20:48;;;;;;;19.17;7.85;;;28.30;75.50;;;;;;5087392;28;20044;-52
2023/02/09 08:23:26;;;;;;;16.48;7.70;;;28.30;77.00;;;;;;5087384;28;20016;-52
2023/02/09 08:25:53;;;;;;;15.50;7.90;;;28.20;77.40;;;;;;5087493;28;20369;-51
2023/02/09 08:28:20;;;;;;;16.25;7.22;;;28.30;78.20;;;;;;5087202;28;20365;-50
2023/02/09 08:30:48;;;;;;;11.52;7.10;;;28.20;78.50;;;;;;5086825;28;20249;-50
2023/02/09 08:33:15;;;;;;;11.93;6.32;;;28.20;78.20;;;;;;5087117;28;20024;-54
2023/02/09 08:35:42;;;;;;;14.23;5.72;;;28.20;78.20;;;;;;5087086;28;20027;-52
2023/02/09 08:38:09;;;;;;;8.05;5.82;;;28.20;78.60;;;;;;5087015;28;20033;-51
2023/02/09 08:40:42;;;;;;;9.85;6.03;;;28.20;79.10;;;;;;5087120;28;20025;-53
2023/02/09 08:43:10;;;;;;;10.18;6.38;;;28.10;79.50;;;;;;5086870;28;20066;-53
2023/02/09 08:45:41;;;;;;;8.30;6.10;;;28.10;80.00;;;;;;5086681;28;20326;-48
2023/02/09 08:48:09;;;;;;;9.93;6.45;;;28.10;80.30;;;;;;5086706;28;20063;-47
2023/02/09 08:50:37;;;;;;;10.10;6.10;;;28.00;80.60;;;;;;5086687;28;20059;-57
2023/02/09 08:53:04;;;;;;;10.15;6.15;;;28.00;80.50;;;;;;5086821;28;20320;-51
2023/02/09 08:55:32;;;;;;;11.45;6.40;;;28.00;80.70;;;;;;5086606;28;20021;-52
2023/02/09 08:57:59;;;;;;;11.45;6.20;;;28.00;81.00;;;;;;5086819;28;20024;-53
2023/02/09 09:00:26;;;;;;;9.35;6.07;;;28.00;81.20;;;;;;5086544;28;20268;-53
2023/02/09 09:02:53;;;;;;;8.60;6.20;;;28.00;81.50;;;;;;5086440;28;20025;-53
2023/02/09 09:05:19;;;;;;;9.90;6.63;;;27.90;81.70;;;;;;5087084;28;20020;-50
2023/02/09 09:07:46;;;;;;;9.80;6.55;;;27.90;81.90;;;;;;5086652;28;20028;-53
2023/02/09 09:10:13;;;;;;;9.85;5.97;;;27.90;81.70;;;;;;5086868;28;20313;-50
2023/02/09 09:12:40;;;;;;;8.75;6.28;;;27.90;81.60;;;;;;5086375;28;20082;-50
2023/02/09 09:15:06;;;;;;;9.60;6.55;;;27.90;81.70;;;;;;5086681;28;20024;-50
2023/02/09 09:17:33;;;;;;;8.65;6.40;;;27.90;81.40;;;;;;5086414;28;20029;-50
2023/02/09 09:19:59;;;;;;;10.70;6.10;;;27.80;81.60;;;;;;5085801;28;20227;-52
2023/02/09 09:22:26;;;;;;;9.45;6.28;;;27.80;81.90;;;;;;5086344;28;20423;-49
2023/02/09 09:24:54;;;;;;;9.45;6.47;;;27.80;82.10;;;;;;5086795;28;20028;-52
2023/02/09 09:27:21;;;;;;;8.48;6.57;;;27.80;82.40;;;;;;5086067;28;20035;-51
2023/02/09 09:29:48;;;;;;;9.38;6.65;;;27.80;82.60;;;;;;5086351;28;20451;-50
2023/02/09 09:32:14;;;;;;;11.25;6.55;;;27.80;82.90;;;;;;5085962;28;20029;-50
2023/02/09 09:34:41;;;;;;;9.85;7.10;;;27.80;82.90;;;;;;5086280;28;20032;-50
2023/02/09 09:37:08;;;;;;;8.35;7.22;;;27.70;83.00;;;;;;5086006;28;20029;-51
2023/02/09 09:39:35;;;;;;;9.93;6.88;;;27.80;83.30;;;;;;5086274;28;20032;-52
2023/02/09 09:42:04;;;;;;;8.75;7.30;;;27.70;83.40;;;;;;5085870;28;20032;-50
2023/02/09 09:44:40;;;;;;;12.02;7.43;;;27.70;83.40;;;;;;5084493;28;20071;-52
2023/02/09 09:47:11;;;;;;;9.00;7.03;;;27.70;83.50;;;;;;5071970;28;20033;-49
2023/02/09 09:49:39;;;;;;;9.05;7.03;;;27.70;83.60;;;;;;5086091;28;20028;-52
2023/02/09 09:52:18;;;;;;;8.63;7.30;;;27.70;83.40;;;;;;5085661;28;20090;-46
2023/02/09 09:54:45;;;;;;;9.00;7.13;;;27.70;83.50;;;;;;5086048;28;20036;-48
2023/02/09 09:57:20;;;;;;;9.88;7.60;;;27.70;83.60;;;;;;5085714;28;20388;-47
2023/02/09 09:59:48;;;;;;;9.25;7.30;;;27.70;83.90;;;;;;5085478;28;20331;-45
2023/02/09 10:02:29;;;;;;;9.30;7.47;;;27.70;83.90;;;;;;5085661;28;20100;-52
2023/02/09 10:05:17;;;;;;;9.05;7.75;;;27.70;84.50;;;;;;5085839;28;20016;-51
2023/02/09 10:08:10;;;;;;;9.32;7.93;;;27.70;84.20;;;;;;5085443;28;20040;-53
2023/02/09 10:10:40;;;;;;;9.60;7.43;;;27.60;84.00;;;;;;5077578;28;20036;-52
2023/02/09 10:13:32;;;;;;;8.93;7.85;;;27.60;84.10;;;;;;5085283;28;20039;-54
2023/02/09 10:16:00;;;;;;;9.43;7.78;;;27.60;84.30;;;;;;5084966;28;20126;-45
2023/02/09 10:18:29;;;;;;;10.27;7.57;;;27.60;84.10;;;;;;5084443;28;20070;-53
2023/02/09 10:21:05;;;;;;;10.48;7.45;;;27.60;84.20;;;;;;5084513;28;20035;-48
2023/02/09 10:23:38;;;;;;;8.68;7.43;;;27.60;84.20;;;;;;5084505;28;20213;-51
2023/02/09 10:26:07;;;;;;;10.77;7.60;;;27.60;84.30;;;;;;5084308;28;20091;-51
2023/02/09 10:28:41;;;;;;;10.68;7.88;;;27.60;84.30;;;;;;5083309;28;20070;-53
2023/02/09 10:31:34;;;;;;;10.98;7.68;;;27.50;84.30;;;;;;5083876;28;20031;-50
2023/02/09 10:34:15;;;;;;;12.15;7.88;;;27.50;84.30;;;;;;5084962;28;20086;-52
2023/02/09 10:36:51;;;;;;;9.52;8.02;;;27.60;84.20;;;;;;5084718;28;20043;-51
2023/02/09 10:39:29;;;;;;;9.23;8.18;;;27.50;84.10;;;;;;5084965;28;20205;-53
2023/02/09 10:42:13;;;;;;;11.82;8.20;;;27.60;84.20;;;;;;5084657;28;20024;-49
2023/02/09 10:44:39;;;;;;;12.93;7.75;;;27.50;84.20;;;;;;5081701;28;20351;-54
2023/02/09 10:47:32;;;;;;;12.73;7.82;;;27.60;84.30;;;;;;5079880;28;20074;-49
2023/02/09 10:50:11;;;;;;;9.73;6.93;;;27.50;84.20;;;;;;5063236;28;20325;-47
2023/02/09 10:53:00;;;;;;;9.90;7.35;;;27.50;84.10;;;;;;5064179;28;20321;-46
2023/02/09 10:55:40;;;;;;;13.00;7.60;;;27.50;84.00;;;;;;5079721;28;20032;-43
2023/02/09 10:58:23;;;;;;;11.40;6.65;;;27.50;84.10;;;;;;5082218;28;20055;-52
2023/02/09 11:00:51;;;;;;;;;;;27.50;84.10;;;;;;5084312;28;20028;-52
2023/02/09 11:03:24;;;;;;;14.13;7.30;;;27.50;84.20;;;;;;5083489;28;19900;-51
2023/02/09 11:06:13;;;;;;;11.80;7.47;;;27.50;84.20;;;;;;5084273;28;20316;-52
2023/02/09 11:08:48;;;;;;;12.75;7.22;;;27.50;84.10;;;;;;5084413;28;20339;-51
2023/02/09 11:11:42;;;;;;;11.52;7.03;;;27.50;83.90;;;;;;5084101;28;20045;-52
2023/02/09 11:14:19;;;;;;;13.32;7.05;;;27.50;83.70;;;;;;5072241;28;20197;-52
2023/02/09 11:16:49;;;;;;;14.63;7.45;;;27.50;83.70;;;;;;5071473;28;20074;-52
2023/02/09 11:19:41;;;;;;;11.40;6.70;;;27.50;83.90;;;;;;5093338;28;20040;-51
2023/02/09 11:22:18;;;;;;;9.68;6.30;;;27.50;84.00;;;;;;5074384;28;20394;-51
2023/02/09 11:25:19;;;;;;;10.98;6.50;;;27.50;84.10;;;;;;5074337;28;20261;-52
2023/02/09 11:28:08;;;;;;;10.55;6.13;;;27.50;84.40;;;;;;5071043;28;20075;-52
2023/02/09 11:31:16;;;;;;;16.13;6.97;;;27.50;84.60;;;;;;5072772;28;20328;-49
2023/02/09 11:34:02;;;;;;;16.25;6.93;;;27.50;84.70;;;;;;5059426;28;20060;-59
2023/02/09 11:36:49;;;;;;;11.80;7.55;;;27.40;84.60;;;;;;5083302;28;20083;-51
2023/02/09 11:39:45;;;;;;;10.30;6.55;;;27.30;85.00;;;;;;5084186;28;20032;-46
2023/02/09 11:45:30;;;;;;;9.80;5.88;;;27.30;84.70;;;;;;5082642;28;20077;-49
2023/02/09 11:48:13;;;;;;;11.57;5.85;;;27.40;84.60;;;;;;5082208;28;20024;-48
2023/02/09 11:51:01;;;;;;;7.03;5.60;;;27.40;84.40;;;;;;5081940;28;20032;-55
2023/02/09 11:53:52;;;;;;;9.52;5.93;;;27.40;84.30;;;;;;5082679;28;20074;-50
2023/02/09 11:56:22;;;;;;;10.43;5.77;;;27.40;84.30;;;;;;5082901;28;20396;-53
2023/02/09 11:59:20;;;;;;;10.05;5.50;;;27.40;84.40;;;;;;5082978;28;20228;-55
2023/02/09 12:02:28;;;;;;;8.45;5.78;;;27.40;84.50;;;;;;5083304;28;20033;-52
2023/02/09 12:05:04;;;;;;;9.73;5.32;;;27.40;84.60;;;;;;5021243;28;20037;-50
2023/02/09 12:07:37;;;;;;;8.00;5.35;;;27.40;84.50;;;;;;5022187;28;20395;-49
2023/02/09 12:10:26;;;;;;;14.30;5.55;;;27.40;84.60;;;;;;5058143;28;20032;-54
2023/02/09 12:13:30;;;;;;;8.95;5.40;;;27.40;84.90;;;;;;5082346;28;20248;-49
2023/02/09 12:16:03;;;;;;;9.50;5.95;;;27.40;85.20;;;;;;5083512;28;20029;-49
2023/02/09 12:18:32;;;;;;;10.38;6.15;;;27.40;85.50;;;;;;5083701;28;20036;-49
2023/02/09 12:21:06;;;;;;;10.35;6.00;;;27.40;85.80;;;;;;5083355;28;20029;-50
2023/02/09 12:23:36;;;;;;;9.10;5.95;;;27.40;86.10;;;;;;5083466;28;20304;-51
2023/02/09 12:26:42;;;;;;;11.18;5.63;;;27.40;86.20;;;;;;5083298;28;20028;-50
2023/02/09 12:29:33;;;;;;;10.35;5.90;;;27.40;86.50;;;;;;5080714;28;20056;-50
2023/02/09 12:32:03;;;;;;;8.63;5.77;;;27.30;86.50;;;;;;5083617;28;20042;-51
2023/02/09 12:34:48;;;;;;;19.15;7.93;;;27.30;86.60;;;;;;5083398;28;20601;-54
2023/02/09 12:37:18;;;;;;;20.83;8.25;;;27.30;86.80;;;;;;5083327;28;20071;-51
2023/02/09 12:40:17;;;;;;;40.05;10.23;;;27.30;86.80;;;;;;5083470;28;20134;-57
2023/02/09 12:42:53;;;;;;;33.65;9.77;;;27.30;86.80;;;;;;5083178;28;20032;-48
2023/02/09 12:45:41;;;;;;;25.88;8.60;;;27.20;86.60;;;;;;5083272;28;20111;-47
2023/02/09 12:48:07;;;;;;;15.45;6.25;;;27.20;86.30;;;;;;5083027;28;20032;-50
2023/02/09 12:50:47;;;;;;;13.65;6.50;;;27.20;86.20;;;;;;5083191;28;20108;-49
2023/02/09 12:53:22;;;;;;;13.55;5.30;;;27.20;86.20;;;;;;5083221;28;20316;-50
2023/02/09 12:56:12;;;;;;;10.80;5.20;;;27.20;86.20;;;;;;5084377;28;20379;-51
2023/02/09 12:58:45;;;;;;;11.25;5.18;;;27.10;86.20;;;;;;5077359;28;20116;-49
2023/02/09 13:01:15;;;;;;;8.10;5.10;;;27.10;86.30;;;;;;5086605;28;20086;-58
2023/02/09 13:04:09;;;;;;;7.20;4.57;;;27.10;86.40;;;;;;5086802;28;20028;-51
2023/02/09 13:06:50;;;;;;;12.25;4.55;;;27.10;86.50;;;;;;5086605;28;20036;-50
2023/02/09 13:09:27;;;;;;;8.98;4.32;;;27.10;86.50;;;;;;5086753;28;20024;-51